Time;durP1;ratioP1;P1;durP2;ratioP2;P2;SDS_P1;SDS_P2;PMS_P1;PMS_P2;Temp;Humidity;BMP_temperature;BMP_pressure;BME280_temperature;BME280_humidity;BME280_pressure;Samples;Min_cycle;Max_cycle;Signal;HPM_P1;HPM_P2
2023/09/03 00:01:54;;;;;;;13.27;11.80;;;14.20;99.90;;;;;;5025927;28;20045;-52
2023/09/03 00:04:20;;;;;;;13.18;11.52;;;14.20;99.90;;;;;;5026454;28;20050;-50
2023/09/03 00:06:45;;;;;;;12.57;11.25;;;14.10;99.90;;;;;;5026511;28;20061;-50
2023/09/03 00:09:11;;;;;;;15.23;12.15;;;14.20;99.90;;;;;;5025785;28;20476;-53
2023/09/03 00:11:36;;;;;;;15.55;13.05;;;14.20;99.90;;;;;;5025359;28;20056;-50
2023/09/03 00:14:02;;;;;;;16.92;14.02;;;14.20;99.90;;;;;;5025944;28;20060;-51
2023/09/03 00:16:28;;;;;;;18.73;15.57;;;14.20;99.90;;;;;;5024159;28;20049;-52
2023/09/03 00:18:54;;;;;;;16.90;15.10;;;14.20;99.90;;;;;;5026071;28;20049;-51
2023/09/03 00:21:19;;;;;;;18.73;16.75;;;14.40;99.90;;;;;;5026138;28;20045;-50
2023/09/03 00:23:45;;;;;;;18.30;15.57;;;14.10;99.90;;;;;;5026414;28;20071;-49
2023/09/03 00:26:21;;;;;;;17.13;14.38;;;14.20;99.90;;;;;;5025239;28;20381;-53
2023/09/03 00:28:47;;;;;;;17.13;15.32;;;14.10;99.90;;;;;;5024737;28;20076;-49
2023/09/03 00:31:12;;;;;;;17.27;15.25;;;14.00;99.90;;;;;;5025033;28;20103;-50
2023/09/03 00:33:38;;;;;;;20.25;15.98;;;14.00;99.90;;;;;;5025829;28;20045;-52
2023/09/03 00:36:05;;;;;;;16.58;14.90;;;13.90;99.90;;;;;;5025298;28;20114;-51
2023/09/03 00:38:31;;;;;;;21.35;15.55;;;13.90;99.90;;;;;;5025828;28;20045;-50
2023/09/03 00:40:57;;;;;;;17.73;15.73;;;13.90;99.90;;;;;;5025986;28;20523;-52
2023/09/03 00:43:23;;;;;;;16.63;14.93;;;13.90;99.90;;;;;;5023482;28;20049;-50
2023/09/03 00:45:49;;;;;;;16.48;14.88;;;13.80;99.90;;;;;;5024676;28;20048;-46
2023/09/03 00:48:24;;;;;;;17.48;15.65;;;13.90;99.90;;;;;;5025745;28;20041;-52
2023/09/03 00:50:52;;;;;;;17.15;15.20;;;13.90;99.90;;;;;;5023959;28;20073;-51
2023/09/03 00:53:20;;;;;;;17.27;15.57;;;13.80;99.90;;;;;;5026596;28;20045;-52
2023/09/03 00:55:45;;;;;;;17.85;15.98;;;13.80;99.90;;;;;;5020240;28;20056;-52
2023/09/03 00:58:12;;;;;;;18.13;16.23;;;13.80;99.90;;;;;;5013628;28;20045;-49
2023/09/03 01:00:38;;;;;;;17.65;15.88;;;13.80;99.90;;;;;;5004575;28;20578;-53
2023/09/03 01:03:04;;;;;;;17.02;15.32;;;13.90;99.90;;;;;;5005374;28;20077;-51
2023/09/03 01:05:30;;;;;;;17.45;15.70;;;14.00;99.90;;;;;;5004859;28;20148;-49
2023/09/03 01:07:58;;;;;;;18.42;16.58;;;13.90;99.90;;;;;;5003125;28;20046;-51
2023/09/03 01:10:48;;;;;;;18.00;16.23;;;13.90;99.90;;;;;;5005619;28;20109;-49
2023/09/03 01:13:26;;;;;;;19.45;17.23;;;13.80;99.90;;;;;;5026550;23;20112;-50
2023/09/03 01:15:53;;;;;;;19.77;16.88;;;13.80;99.90;;;;;;4966671;28;20051;-49
2023/09/03 01:18:24;;;;;;;19.10;17.13;;;13.80;99.90;;;;;;4965589;28;20047;-52
2023/09/03 01:21:23;;;;;;;18.83;16.83;;;13.70;99.90;;;;;;4965088;28;20057;-49
2023/09/03 01:24:10;;;;;;;18.73;16.77;;;13.70;99.90;;;;;;4967503;28;20412;-50
2023/09/03 01:26:57;;;;;;;22.38;16.75;;;13.70;99.90;;;;;;4966232;28;20117;-48
2023/09/03 01:29:24;;;;;;;19.10;17.08;;;13.60;99.90;;;;;;4945383;28;20050;-50
2023/09/03 01:31:50;;;;;;;18.67;16.77;;;13.60;99.90;;;;;;4945714;29;20567;-49
2023/09/03 01:34:17;;;;;;;21.25;17.63;;;13.60;99.90;;;;;;4946406;28;20039;-50
2023/09/03 01:36:44;;;;;;;19.75;17.13;;;13.60;99.90;;;;;;4946101;28;20051;-50
2023/09/03 01:39:10;;;;;;;18.98;17.08;;;13.60;99.90;;;;;;4947286;28;20055;-51
2023/09/03 01:41:37;;;;;;;19.40;17.50;;;13.60;99.90;;;;;;4947956;28;20505;-50
2023/09/03 01:44:05;;;;;;;18.58;16.55;;;13.70;99.90;;;;;;4960337;28;20046;-50
2023/09/03 01:46:48;;;;;;;20.00;17.92;;;13.60;99.90;;;;;;4963958;28;20070;-53
2023/09/03 01:49:34;;;;;;;20.33;17.48;;;13.60;99.90;;;;;;4966074;28;20043;-49
2023/09/03 01:52:32;;;;;;;19.25;17.15;;;13.70;99.90;;;;;;4964167;28;20101;-51
2023/09/03 01:54:59;;;;;;;18.52;16.63;;;13.60;99.90;;;;;;4962983;28;20051;-54
2023/09/03 01:57:33;;;;;;;19.80;17.70;;;13.80;99.90;;;;;;4955130;28;20481;-52
2023/09/03 02:00:05;;;;;;;19.20;17.17;;;13.70;99.90;;;;;;4960915;28;20051;-51
2023/09/03 02:02:32;;;;;;;19.17;17.27;;;13.70;99.90;;;;;;4945766;28;20047;-50
2023/09/03 02:04:58;;;;;;;20.25;18.15;;;13.60;99.90;;;;;;4960942;28;20047;-49
2023/09/03 02:07:24;;;;;;;19.60;17.50;;;13.60;99.90;;;;;;4946680;28;20453;-51
2023/09/03 02:09:50;;;;;;;20.52;17.67;;;13.60;99.90;;;;;;4945324;28;20098;-50
2023/09/03 02:12:16;;;;;;;19.73;17.63;;;13.60;99.90;;;;;;4946402;28;20051;-54
2023/09/03 02:14:42;;;;;;;19.58;17.27;;;13.50;99.90;;;;;;4945095;28;20051;-52
2023/09/03 02:17:09;;;;;;;19.55;17.52;;;13.50;99.90;;;;;;4946902;28;20042;-50
2023/09/03 02:19:34;;;;;;;20.10;18.10;;;13.50;99.90;;;;;;4945870;28;20058;-49
2023/09/03 02:22:00;;;;;;;21.17;17.67;;;13.50;99.90;;;;;;4945049;28;20381;-47
2023/09/03 02:24:25;;;;;;;18.60;16.70;;;13.40;99.90;;;;;;4946258;29;20047;-48
2023/09/03 02:26:51;;;;;;;19.65;17.63;;;13.40;99.90;;;;;;4945620;28;20045;-49
2023/09/03 02:29:17;;;;;;;21.55;17.73;;;13.40;99.90;;;;;;4945338;28;20429;-52
2023/09/03 02:31:42;;;;;;;18.63;16.73;;;13.70;99.90;;;;;;4945764;28;20075;-53
2023/09/03 02:34:09;;;;;;;19.50;17.58;;;13.60;99.90;;;;;;4944333;29;20055;-50
2023/09/03 02:36:35;;;;;;;20.88;16.45;;;13.50;99.90;;;;;;4945032;28;20126;-49
2023/09/03 02:39:01;;;;;;;17.67;15.88;;;13.30;99.90;;;;;;4945376;28;20138;-48
2023/09/03 02:41:29;;;;;;;19.30;17.30;;;13.30;99.90;;;;;;4964181;28;20053;-51
2023/09/03 02:43:58;;;;;;;18.83;16.58;;;13.30;99.90;;;;;;4964578;28;20042;-47
2023/09/03 02:46:25;;;;;;;18.27;16.40;;;13.20;99.90;;;;;;4965121;28;20142;-51
2023/09/03 02:48:51;;;;;;;18.90;15.07;;;13.20;99.90;;;;;;4965017;28;20045;-49
2023/09/03 02:51:17;;;;;;;18.58;15.95;;;13.20;99.90;;;;;;4963928;28;20046;-49
2023/09/03 02:53:45;;;;;;;16.95;15.35;;;13.30;99.90;;;;;;4963866;28;20398;-50
2023/09/03 02:56:12;;;;;;;18.08;16.20;;;13.20;99.90;;;;;;4958914;28;20051;-49
2023/09/03 02:58:38;;;;;;;20.40;16.45;;;13.20;99.90;;;;;;4949000;28;20118;-53
2023/09/03 03:01:12;;;;;;;18.70;16.42;;;13.20;99.90;;;;;;4943590;28;20107;-48
2023/09/03 03:03:38;;;;;;;20.30;16.80;;;13.30;99.90;;;;;;4944612;28;20055;-49
2023/09/03 03:06:04;;;;;;;20.17;15.98;;;13.20;99.90;;;;;;4944934;29;20047;-50
2023/09/03 03:08:29;;;;;;;17.67;15.60;;;13.10;99.90;;;;;;4944815;28;20496;-51
2023/09/03 03:11:15;;;;;;;17.85;16.05;;;13.10;99.90;;;;;;4944661;28;20058;-51
2023/09/03 03:13:42;;;;;;;19.77;15.20;;;13.10;99.90;;;;;;4944967;28;20083;-53
2023/09/03 03:16:10;;;;;;;17.70;15.90;;;13.00;99.90;;;;;;4944071;28;20091;-50
2023/09/03 03:18:37;;;;;;;17.98;14.95;;;12.90;99.90;;;;;;4945024;28;20043;-50
2023/09/03 03:21:10;;;;;;;17.23;15.43;;;12.90;99.90;;;;;;4945142;29;20414;-51
2023/09/03 03:23:37;;;;;;;17.67;15.90;;;12.90;99.90;;;;;;4944892;28;20114;-51
2023/09/03 03:26:03;;;;;;;18.38;16.48;;;13.00;99.90;;;;;;4944649;28;20051;-47
2023/09/03 03:28:34;;;;;;;18.35;16.25;;;12.90;99.90;;;;;;4945085;28;20046;-52
2023/09/03 03:31:09;;;;;;;17.15;15.35;;;12.90;99.90;;;;;;4942385;29;20145;-51
2023/09/03 03:33:35;;;;;;;17.40;15.60;;;13.00;99.90;;;;;;4945045;28;20228;-50
2023/09/03 03:36:01;;;;;;;20.63;15.70;;;12.80;99.90;;;;;;4948760;28;20050;-50
2023/09/03 03:38:27;;;;;;;16.38;14.32;;;12.90;99.90;;;;;;4948191;28;20529;-50
2023/09/03 03:40:52;;;;;;;16.08;14.48;;;12.90;99.90;;;;;;4949126;28;20393;-52
2023/09/03 03:43:18;;;;;;;18.23;14.35;;;12.80;99.90;;;;;;4948291;28;20063;-50
2023/09/03 03:45:43;;;;;;;15.98;14.38;;;12.80;99.90;;;;;;4946566;29;20043;-52
2023/09/03 03:48:09;;;;;;;15.32;13.85;;;12.80;99.90;;;;;;4947760;28;20119;-49
2023/09/03 03:50:35;;;;;;;17.20;15.15;;;12.70;99.90;;;;;;4948770;29;20039;-49
2023/09/03 03:53:00;;;;;;;17.10;14.40;;;12.70;99.90;;;;;;4948350;28;20039;-47
2023/09/03 03:55:26;;;;;;;17.35;15.55;;;12.70;99.90;;;;;;4963544;28;20043;-49
2023/09/03 03:57:51;;;;;;;16.55;14.77;;;12.70;99.90;;;;;;4972333;28;20062;-50
2023/09/03 04:00:17;;;;;;;16.60;14.65;;;12.70;99.90;;;;;;4963088;28;20043;-52
2023/09/03 04:02:43;;;;;;;17.23;15.40;;;12.60;99.90;;;;;;4948277;28;20039;-49
2023/09/03 04:05:08;;;;;;;15.50;14.00;;;12.80;99.90;;;;;;4948101;28;20126;-48
2023/09/03 04:07:34;;;;;;;16.23;14.48;;;12.60;99.90;;;;;;4947586;28;20043;-48
2023/09/03 04:09:59;;;;;;;16.33;14.55;;;12.80;99.90;;;;;;4948867;28;20043;-47
2023/09/03 04:12:25;;;;;;;15.77;14.27;;;12.60;99.90;;;;;;4947727;28;20130;-49
2023/09/03 04:14:51;;;;;;;16.83;13.43;;;12.60;99.90;;;;;;4947771;29;20051;-52
2023/09/03 04:17:16;;;;;;;15.77;14.27;;;12.60;99.90;;;;;;4948459;29;20085;-48
2023/09/03 04:19:47;;;;;;;15.45;13.95;;;12.80;99.90;;;;;;4948423;28;20070;-52
2023/09/03 04:22:12;;;;;;;14.80;13.32;;;12.70;99.90;;;;;;4947211;28;20433;-49
2023/09/03 04:24:38;;;;;;;15.43;13.85;;;12.80;99.90;;;;;;4947496;29;20114;-51
2023/09/03 04:27:04;;;;;;;15.23;13.63;;;12.70;99.90;;;;;;4963212;28;20057;-48
2023/09/03 04:29:30;;;;;;;15.15;13.57;;;12.60;99.90;;;;;;4946103;28;20097;-49
2023/09/03 04:31:55;;;;;;;15.55;13.95;;;12.60;99.90;;;;;;4947765;28;20069;-51
2023/09/03 04:34:21;;;;;;;15.07;13.55;;;12.70;99.90;;;;;;4948117;28;20040;-52
2023/09/03 04:36:46;;;;;;;15.75;14.25;;;12.60;99.90;;;;;;4948613;28;20040;-52
2023/09/03 04:39:12;;;;;;;15.23;13.73;;;12.70;99.90;;;;;;4947414;28;20701;-49
2023/09/03 04:41:38;;;;;;;14.57;13.07;;;12.70;99.90;;;;;;4947397;29;20039;-49
2023/09/03 04:44:09;;;;;;;13.00;11.73;;;12.70;99.90;;;;;;4947062;28;20044;-49
2023/09/03 04:46:35;;;;;;;13.68;12.27;;;12.70;99.90;;;;;;4947191;28;20040;-49
2023/09/03 04:49:00;;;;;;;14.48;13.05;;;12.80;99.90;;;;;;4947533;28;20183;-50
2023/09/03 04:51:26;;;;;;;16.08;13.13;;;12.80;99.90;;;;;;4947400;28;20457;-48
2023/09/03 04:53:52;;;;;;;13.68;12.38;;;12.70;99.90;;;;;;4947890;28;20046;-50
2023/09/03 04:56:17;;;;;;;13.95;12.63;;;12.70;99.90;;;;;;4953041;28;20090;-51
2023/09/03 04:58:43;;;;;;;13.48;12.02;;;12.70;99.90;;;;;;4963177;28;20138;-51
2023/09/03 05:01:18;;;;;;;14.68;11.70;;;12.60;99.90;;;;;;4966452;28;20043;-50
2023/09/03 05:03:43;;;;;;;;;;;12.60;99.90;;;;;;4965883;28;20089;-49
2023/09/03 05:06:16;;;;;;;13.85;12.30;;;12.60;99.90;;;;;;4966879;28;19973;-49
2023/09/03 05:08:42;;;;;;;13.82;12.27;;;12.60;99.90;;;;;;4967162;28;20043;-48
2023/09/03 05:11:12;;;;;;;15.63;12.43;;;12.60;99.90;;;;;;4965098;28;20046;-50
2023/09/03 05:13:41;;;;;;;17.48;13.25;;;12.80;99.90;;;;;;4965369;28;20106;-50
2023/09/03 05:16:07;;;;;;;14.10;12.57;;;12.60;99.90;;;;;;4966642;28;20043;-48
2023/09/03 05:18:34;;;;;;;14.45;13.05;;;12.60;99.90;;;;;;4965960;28;20105;-48
2023/09/03 05:21:06;;;;;;;14.68;13.00;;;12.60;99.90;;;;;;4966787;28;20043;-52
2023/09/03 05:23:32;;;;;;;14.48;13.05;;;12.70;99.90;;;;;;4966101;28;20109;-50
2023/09/03 05:25:58;;;;;;;13.77;12.35;;;12.80;99.90;;;;;;4966317;28;20093;-48
2023/09/03 05:28:23;;;;;;;13.88;12.48;;;12.70;99.90;;;;;;4966739;28;20043;-49
2023/09/03 05:30:49;;;;;;;15.02;12.55;;;12.60;99.90;;;;;;4965649;28;20043;-51
2023/09/03 05:33:15;;;;;;;13.93;12.43;;;12.60;99.90;;;;;;4960076;28;20098;-51
2023/09/03 05:35:41;;;;;;;14.15;12.60;;;12.70;99.90;;;;;;4952982;28;20055;-49
2023/09/03 05:38:07;;;;;;;13.20;11.90;;;12.80;99.90;;;;;;4946104;28;20106;-51
2023/09/03 05:40:33;;;;;;;13.98;12.63;;;13.10;99.90;;;;;;4946730;28;20047;-48
2023/09/03 05:42:58;;;;;;;14.13;12.73;;;12.90;99.90;;;;;;4947043;28;20470;-48
2023/09/03 05:45:24;;;;;;;13.00;11.68;;;13.00;99.90;;;;;;4945900;28;20051;-48
2023/09/03 05:47:50;;;;;;;12.85;11.57;;;13.10;99.90;;;;;;4946886;28;20079;-50
2023/09/03 05:50:15;;;;;;;12.73;11.38;;;13.20;99.90;;;;;;4945137;29;20065;-49
2023/09/03 05:52:42;;;;;;;13.50;12.02;;;13.30;99.90;;;;;;4945301;28;20047;-51
2023/09/03 05:55:08;;;;;;;12.13;10.93;;;13.40;99.90;;;;;;4949433;28;20489;-48
2023/09/03 05:57:34;;;;;;;12.40;11.10;;;13.50;99.90;;;;;;4960209;28;20078;-49
2023/09/03 06:00:00;;;;;;;12.15;10.95;;;13.60;99.90;;;;;;4964652;28;20085;-47
2023/09/03 06:02:26;;;;;;;12.70;11.40;;;13.80;99.90;;;;;;4965797;28;20039;-50
2023/09/03 06:04:52;;;;;;;13.75;11.35;;;13.90;99.90;;;;;;4965205;28;20043;-48
2023/09/03 06:07:18;;;;;;;11.77;10.68;;;14.10;99.90;;;;;;4965250;28;20437;-51
2023/09/03 06:09:44;;;;;;;12.45;11.02;;;14.20;99.90;;;;;;4964546;28;20034;-48
2023/09/03 06:12:10;;;;;;;13.02;10.98;;;14.10;99.90;;;;;;4963935;28;20070;-51
2023/09/03 06:14:36;;;;;;;14.00;11.27;;;14.20;99.90;;;;;;4964660;28;20054;-50
2023/09/03 06:17:03;;;;;;;12.77;10.75;;;14.20;99.90;;;;;;4965437;28;20089;-47
2023/09/03 06:19:29;;;;;;;13.52;10.77;;;14.20;99.90;;;;;;4965922;28;20047;-49
2023/09/03 06:21:55;;;;;;;11.50;9.98;;;14.20;99.90;;;;;;4965466;28;20457;-48
2023/09/03 06:24:21;;;;;;;11.07;9.98;;;14.20;99.90;;;;;;4965774;28;20043;-51
2023/09/03 06:26:46;;;;;;;10.80;9.65;;;14.40;99.90;;;;;;4963076;28;20042;-51
2023/09/03 06:29:12;;;;;;;11.88;9.25;;;14.60;99.90;;;;;;4964675;28;20186;-52
2023/09/03 06:31:38;;;;;;;10.70;9.00;;;14.70;99.90;;;;;;4964683;28;20065;-47
2023/09/03 06:34:03;;;;;;;11.10;9.35;;;14.80;99.90;;;;;;4964663;28;20054;-50
2023/09/03 06:36:29;;;;;;;9.70;8.20;;;14.60;99.90;;;;;;4964400;28;20536;-51
2023/09/03 06:38:55;;;;;;;9.48;8.48;;;15.40;99.90;;;;;;4964848;28;20133;-47
2023/09/03 06:41:20;;;;;;;9.80;8.80;;;15.20;99.90;;;;;;4963400;28;20413;-49
2023/09/03 06:43:46;;;;;;;10.30;8.50;;;15.40;99.90;;;;;;4963220;28;20535;-51
2023/09/03 06:46:12;;;;;;;9.65;8.65;;;15.50;99.90;;;;;;4964545;28;20054;-50
2023/09/03 06:48:38;;;;;;;9.07;8.18;;;15.80;99.90;;;;;;4963491;28;20031;-50
2023/09/03 06:51:04;;;;;;;9.18;7.75;;;15.80;99.90;;;;;;4956188;28;20035;-48
2023/09/03 06:53:30;;;;;;;9.77;7.30;;;16.00;99.90;;;;;;4953823;28;20107;-51
2023/09/03 06:55:56;;;;;;;8.85;8.05;;;16.10;99.90;;;;;;4957744;28;20287;-48
2023/09/03 06:58:22;;;;;;;8.70;6.93;;;16.30;99.90;;;;;;4961286;28;20053;-51
2023/09/03 07:00:48;;;;;;;7.63;6.90;;;16.70;99.90;;;;;;4959741;28;20385;-48
2023/09/03 07:03:14;;;;;;;8.75;7.30;;;17.00;99.90;;;;;;4962857;28;20050;-53
2023/09/03 07:05:39;;;;;;;9.50;6.70;;;17.30;99.90;;;;;;4964802;28;20047;-55
2023/09/03 07:08:06;;;;;;;7.50;6.65;;;17.50;99.90;;;;;;4965020;28;20436;-53
2023/09/03 07:10:33;;;;;;;7.40;6.68;;;17.60;99.90;;;;;;4964538;28;20039;-52
2023/09/03 07:12:59;;;;;;;7.57;6.85;;;17.80;99.90;;;;;;4964696;28;20089;-51
2023/09/03 07:15:25;;;;;;;8.18;7.22;;;18.00;99.90;;;;;;4964794;28;20050;-50
2023/09/03 07:17:50;;;;;;;9.50;6.65;;;18.10;99.90;;;;;;4964659;28;20482;-49
2023/09/03 07:20:16;;;;;;;8.52;6.80;;;18.20;99.90;;;;;;4965027;28;20429;-51
2023/09/03 07:22:42;;;;;;;10.90;7.20;;;18.00;99.90;;;;;;4963873;28;20050;-50
2023/09/03 07:25:11;;;;;;;7.80;6.57;;;18.00;99.90;;;;;;4965094;28;20039;-48
2023/09/03 07:27:40;;;;;;;8.65;7.32;;;18.20;99.90;;;;;;4964687;28;20057;-51
2023/09/03 07:30:09;;;;;;;9.32;7.25;;;18.60;99.90;;;;;;4964715;28;20038;-51
2023/09/03 07:32:37;;;;;;;8.57;7.18;;;18.50;99.90;;;;;;4965458;28;20135;-52
2023/09/03 07:35:06;;;;;;;9.55;7.47;;;18.40;99.90;;;;;;4962249;28;20042;-49
2023/09/03 07:37:32;;;;;;;8.13;6.72;;;18.50;99.90;;;;;;4955548;28;20413;-49
2023/09/03 07:39:58;;;;;;;8.25;7.45;;;18.70;99.90;;;;;;4963847;28;20155;-50
2023/09/03 07:42:24;;;;;;;9.27;7.57;;;18.90;99.90;;;;;;4964154;28;20509;-52
2023/09/03 07:44:49;;;;;;;9.85;7.28;;;19.10;99.90;;;;;;4949639;28;20047;-51
2023/09/03 07:47:15;;;;;;;8.95;7.05;;;19.10;99.90;;;;;;4952310;28;20684;-50
2023/09/03 07:49:42;;;;;;;8.48;7.07;;;19.00;99.90;;;;;;4965467;28;20053;-50
2023/09/03 07:52:08;;;;;;;9.65;7.80;;;18.80;99.90;;;;;;4963612;28;20039;-47
2023/09/03 07:54:33;;;;;;;9.18;8.20;;;18.70;99.90;;;;;;4964968;28;20505;-51
2023/09/03 07:56:59;;;;;;;9.50;7.18;;;18.50;99.90;;;;;;4956515;28;20046;-51
2023/09/03 07:59:25;;;;;;;9.07;8.27;;;18.30;99.90;;;;;;4944532;29;20075;-49
2023/09/03 08:01:50;;;;;;;10.73;8.63;;;18.30;99.90;;;;;;4956689;28;20055;-52
2023/09/03 08:04:16;;;;;;;10.93;8.43;;;18.30;99.90;;;;;;4951148;28;20039;-51
2023/09/03 08:06:41;;;;;;;10.70;8.25;;;18.30;99.90;;;;;;4949955;28;20461;-50
2023/09/03 08:09:07;;;;;;;11.52;7.93;;;18.40;99.90;;;;;;4945613;29;20105;-49
2023/09/03 08:11:33;;;;;;;11.73;7.95;;;18.40;99.90;;;;;;4945962;29;20482;-48
2023/09/03 08:13:59;;;;;;;8.95;6.63;;;18.50;99.90;;;;;;4953470;28;20512;-53
2023/09/03 08:16:25;;;;;;;11.52;8.27;;;18.70;99.90;;;;;;4964778;28;20053;-52
2023/09/03 08:18:51;;;;;;;10.52;7.70;;;18.80;99.90;;;;;;4962683;28;20494;-52
2023/09/03 08:21:17;;;;;;;11.60;7.75;;;18.80;99.90;;;;;;4967044;28;20498;-51
2023/09/03 08:23:43;;;;;;;9.73;7.10;;;18.70;99.90;;;;;;4968116;28;20043;-53
2023/09/03 08:26:08;;;;;;;11.32;8.10;;;18.60;99.90;;;;;;4967786;28;20174;-50
2023/09/03 08:28:34;;;;;;;12.38;8.00;;;18.50;99.90;;;;;;4967107;28;20146;-53
2023/09/03 08:31:00;;;;;;;9.90;7.30;;;18.50;99.90;;;;;;4967784;28;20058;-49
2023/09/03 08:33:26;;;;;;;9.43;6.38;;;18.40;99.90;;;;;;4967744;28;20473;-53
2023/09/03 08:35:51;;;;;;;8.18;6.78;;;18.40;99.90;;;;;;4966871;28;20476;-53
2023/09/03 08:38:17;;;;;;;8.73;6.70;;;18.50;99.90;;;;;;4967687;28;20101;-53
2023/09/03 08:40:46;;;;;;;8.77;6.80;;;18.50;99.90;;;;;;4967837;28;20752;-53
2023/09/03 08:43:14;;;;;;;8.48;5.82;;;18.60;99.90;;;;;;4966480;28;20101;-52
2023/09/03 08:46:01;;;;;;;7.07;5.18;;;18.70;99.90;;;;;;4967598;28;20043;-52
2023/09/03 08:48:27;;;;;;;11.10;4.80;;;18.80;99.90;;;;;;4967133;28;20112;-51
2023/09/03 08:50:53;;;;;;;9.18;5.03;;;18.90;99.90;;;;;;4966972;28;20726;-50
2023/09/03 08:53:22;;;;;;;6.00;4.18;;;19.00;99.90;;;;;;4967841;28;20054;-52
2023/09/03 08:55:48;;;;;;;6.40;4.10;;;19.00;99.90;;;;;;4959786;28;20355;-50
2023/09/03 08:58:15;;;;;;;6.63;4.57;;;19.30;99.90;;;;;;4960686;28;20054;-49
2023/09/03 09:00:41;;;;;;;8.80;4.20;;;19.70;99.90;;;;;;4961240;28;20523;-51
2023/09/03 09:03:11;;;;;;;6.43;4.20;;;19.90;99.90;;;;;;4964824;28;20053;-53
2023/09/03 09:05:40;;;;;;;6.93;3.10;;;20.10;99.90;;;;;;4966424;28;20062;-52
2023/09/03 09:08:06;;;;;;;7.32;3.50;;;20.30;99.90;;;;;;4967200;28;20046;-50
2023/09/03 09:10:33;;;;;;;6.22;3.42;;;20.50;99.90;;;;;;4966714;28;20046;-50
2023/09/03 09:13:05;;;;;;;7.80;4.00;;;20.80;99.90;;;;;;4961179;28;20434;-49
2023/09/03 09:15:33;;;;;;;5.40;2.80;;;20.80;99.90;;;;;;4949886;28;20040;-50
2023/09/03 09:17:59;;;;;;;6.57;3.40;;;20.80;99.90;;;;;;4960901;28;20058;-49
2023/09/03 09:20:24;;;;;;;5.88;2.67;;;20.80;99.90;;;;;;4961818;28;20035;-52
2023/09/03 09:22:50;;;;;;;4.80;2.35;;;21.00;99.90;;;;;;4965102;28;20081;-50
2023/09/03 09:25:23;;;;;;;4.80;2.85;;;21.20;99.90;;;;;;4966221;28;20035;-51
2023/09/03 09:27:51;;;;;;;5.90;2.70;;;21.30;99.90;;;;;;4966611;28;20234;-54
2023/09/03 09:30:26;;;;;;;5.28;2.40;;;21.40;99.90;;;;;;4965166;28;20446;-54
2023/09/03 09:33:06;;;;;;;5.20;2.25;;;21.40;99.90;;;;;;4966136;28;20051;-52
2023/09/03 09:35:32;;;;;;;5.18;2.50;;;21.40;99.90;;;;;;4966095;28;20063;-52
2023/09/03 09:38:09;;;;;;;4.00;2.28;;;21.30;99.90;;;;;;4956129;28;20047;-55
2023/09/03 09:40:36;;;;;;;4.13;2.05;;;21.40;99.90;;;;;;4966035;28;20567;-53
2023/09/03 09:43:04;;;;;;;3.35;2.10;;;21.40;99.90;;;;;;4965504;28;20046;-55
2023/09/03 09:45:48;;;;;;;4.32;2.17;;;21.40;99.90;;;;;;4948037;28;20051;-51
2023/09/03 09:48:14;;;;;;;5.82;2.50;;;21.50;99.90;;;;;;4948432;28;20055;-49
2023/09/03 09:50:50;;;;;;;3.45;2.35;;;21.60;99.90;;;;;;4965540;28;20043;-53
2023/09/03 09:53:25;;;;;;;4.40;2.30;;;21.80;99.90;;;;;;4965776;28;20042;-53
2023/09/03 09:56:17;;;;;;;4.95;2.05;;;21.70;99.90;;;;;;4958664;28;20043;-51
2023/09/03 09:58:43;;;;;;;4.72;2.15;;;21.70;99.90;;;;;;4946654;28;20055;-51
2023/09/03 10:01:08;;;;;;;5.07;2.05;;;21.70;99.90;;;;;;4960767;28;20043;-52
2023/09/03 10:03:45;;;;;;;3.80;2.00;;;21.90;99.90;;;;;;4957606;28;20912;-53
2023/09/03 10:06:13;;;;;;;6.63;2.42;;;22.10;99.90;;;;;;4965944;28;20046;-52
2023/09/03 10:08:39;;;;;;;3.33;2.40;;;22.20;99.90;;;;;;4964974;28;20066;-50
2023/09/03 10:11:05;;;;;;;4.45;2.00;;;22.20;99.90;;;;;;4963920;28;20548;-52
2023/09/03 10:13:34;;;;;;;2.40;1.38;;;22.20;99.90;;;;;;4964311;28;20070;-52
2023/09/03 10:16:05;;;;;;;3.03;1.58;;;22.40;99.90;;;;;;4965481;28;20051;-51
2023/09/03 10:18:35;;;;;;;4.28;1.60;;;22.50;99.90;;;;;;4965030;28;20047;-52
2023/09/03 10:21:05;;;;;;;3.38;1.52;;;22.40;99.90;;;;;;4966163;28;20058;-53
2023/09/03 10:23:37;;;;;;;3.47;1.38;;;22.50;99.90;;;;;;4956771;28;20046;-54
2023/09/03 10:26:05;;;;;;;3.67;1.30;;;22.50;99.90;;;;;;4957198;28;20094;-53
2023/09/03 10:28:34;;;;;;;3.70;1.38;;;22.50;99.60;;;;;;4962595;28;20150;-50
2023/09/03 10:31:01;;;;;;;2.95;1.52;;;22.70;99.90;;;;;;4957339;28;20150;-55
2023/09/03 10:33:27;;;;;;;3.60;1.40;;;23.10;99.90;;;;;;4947776;28;20134;-51
2023/09/03 10:36:18;;;;;;;1.77;1.02;;;23.40;99.90;;;;;;4954686;28;20075;-53
2023/09/03 10:38:45;;;;;;;2.53;1.23;;;23.70;99.30;;;;;;4945062;28;20130;-55
2023/09/03 10:41:19;;;;;;;1.88;1.17;;;24.00;99.20;;;;;;4946854;28;20494;-53
2023/09/03 10:43:46;;;;;;;4.00;1.48;;;24.30;97.80;;;;;;4964875;28;20050;-56
2023/09/03 10:46:12;;;;;;;2.15;1.20;;;24.30;96.50;;;;;;4964966;28;20057;-53
2023/09/03 10:48:38;;;;;;;4.07;1.48;;;24.00;96.90;;;;;;4965170;28;20137;-54
2023/09/03 10:51:04;;;;;;;2.75;1.50;;;23.80;97.30;;;;;;4965180;28;20046;-56
2023/09/03 10:53:36;;;;;;;3.38;1.50;;;23.70;97.20;;;;;;4965385;28;20117;-57
2023/09/03 10:56:15;;;;;;;2.88;1.27;;;23.80;97.00;;;;;;4958553;28;20527;-55
2023/09/03 10:58:55;;;;;;;2.05;1.10;;;24.00;97.00;;;;;;4949086;28;20115;-55
2023/09/03 11:01:30;;;;;;;1.65;1.10;;;24.10;97.40;;;;;;4945609;28;20047;-50
2023/09/03 11:03:57;;;;;;;3.00;1.30;;;24.30;97.00;;;;;;4945748;28;20130;-54
2023/09/03 11:06:25;;;;;;;3.00;1.20;;;24.30;96.60;;;;;;4945898;28;20122;-55
2023/09/03 11:09:06;;;;;;;2.22;1.40;;;24.10;96.60;;;;;;4945446;28;20047;-52
2023/09/03 11:11:33;;;;;;;2.42;1.20;;;24.10;96.60;;;;;;4945902;28;20090;-50
2023/09/03 11:14:00;;;;;;;7.05;1.63;;;23.80;96.70;;;;;;4944392;28;20083;-51
2023/09/03 11:16:33;;;;;;;2.67;1.20;;;23.80;96.30;;;;;;4945779;28;20834;-55
2023/09/03 11:19:03;;;;;;;3.78;1.23;;;23.60;96.10;;;;;;4946079;28;20548;-53
2023/09/03 11:21:29;;;;;;;3.22;1.25;;;23.50;96.00;;;;;;4944943;28;20039;-55
2023/09/03 11:24:00;;;;;;;3.50;1.38;;;23.40;96.80;;;;;;4945300;28;20071;-52
2023/09/03 11:26:26;;;;;;;3.10;1.30;;;23.50;97.00;;;;;;4946305;28;20490;-54
2023/09/03 11:28:52;;;;;;;1.65;1.10;;;23.80;96.80;;;;;;4945092;28;20047;-54
2023/09/03 11:31:18;;;;;;;4.45;1.23;;;24.00;96.50;;;;;;4946281;28;20031;-55
2023/09/03 11:33:43;;;;;;;3.15;1.40;;;24.20;96.30;;;;;;4945986;29;20058;-54
2023/09/03 11:36:09;;;;;;;3.95;1.50;;;24.30;96.20;;;;;;4960709;28;20053;-54
2023/09/03 11:38:35;;;;;;;2.45;1.23;;;24.00;95.70;;;;;;4944986;28;20377;-55
2023/09/03 11:41:01;;;;;;;3.35;1.52;;;23.90;96.20;;;;;;4946323;28;20386;-52
2023/09/03 11:43:31;;;;;;;4.15;1.55;;;23.90;95.70;;;;;;4945424;28;20039;-50
2023/09/03 11:45:58;;;;;;;2.38;1.33;;;23.90;95.40;;;;;;4943024;29;20090;-53
2023/09/03 11:48:28;;;;;;;2.60;1.20;;;23.90;94.60;;;;;;4945400;28;20787;-53
2023/09/03 11:50:54;;;;;;;2.40;1.42;;;23.80;94.60;;;;;;4945948;29;20600;-54
2023/09/03 11:53:20;;;;;;;2.55;1.42;;;23.80;94.70;;;;;;4945923;29;20043;-55
2023/09/03 11:55:49;;;;;;;2.42;1.23;;;23.80;95.10;;;;;;4951308;28;20035;-55
2023/09/03 11:58:20;;;;;;;2.67;1.45;;;24.00;95.80;;;;;;4955975;28;20051;-51
2023/09/03 12:00:46;;;;;;;3.08;1.40;;;24.40;95.80;;;;;;4964372;28;20071;-52
2023/09/03 12:03:13;;;;;;;4.18;1.60;;;24.60;95.60;;;;;;4948678;28;20046;-55
2023/09/03 12:05:39;;;;;;;2.70;1.10;;;24.80;95.80;;;;;;4949033;28;20168;-55
2023/09/03 12:08:06;;;;;;;3.47;1.10;;;25.00;95.30;;;;;;4949239;28;20081;-53
2023/09/03 12:10:32;;;;;;;2.03;1.13;;;25.10;95.60;;;;;;4948726;28;20448;-56
2023/09/03 12:13:03;;;;;;;2.20;1.30;;;25.10;94.90;;;;;;4948156;28;20143;-51
2023/09/03 12:15:30;;;;;;;3.25;1.13;;;25.00;94.90;;;;;;4949779;29;20055;-55
2023/09/03 12:18:09;;;;;;;1.70;1.10;;;25.00;94.60;;;;;;4948199;28;20378;-55
2023/09/03 12:20:35;;;;;;;2.35;1.38;;;25.00;93.20;;;;;;4949247;28;20394;-56
2023/09/03 12:23:15;;;;;;;4.38;1.40;;;24.70;93.30;;;;;;4963831;28;20051;-54
2023/09/03 12:25:42;;;;;;;2.40;1.35;;;24.40;93.30;;;;;;4948770;28;20721;-51
2023/09/03 12:28:09;;;;;;;1.90;1.10;;;24.30;94.00;;;;;;4948318;28;20043;-55
2023/09/03 12:30:56;;;;;;;1.75;1.05;;;24.30;94.80;;;;;;4948574;28;20047;-55
2023/09/03 12:33:27;;;;;;;2.83;1.20;;;24.50;94.70;;;;;;4948711;28;20057;-54
2023/09/03 12:36:20;;;;;;;1.48;1.02;;;24.60;95.00;;;;;;4949007;28;20125;-55
2023/09/03 12:38:55;;;;;;;3.17;1.30;;;24.80;94.30;;;;;;4946452;29;20061;-55
2023/09/03 12:41:28;;;;;;;2.30;1.02;;;24.70;94.90;;;;;;4948313;28;20051;-56